createdAt,value
2023-03-29T00:00:38.732Z,4.60
2023-03-29T00:03:06.046Z,7.32
2023-03-29T00:05:36.581Z,6.18
2023-03-29T00:08:04.112Z,6.78
2023-03-29T00:10:32.660Z,7.20
2023-03-29T00:12:59.875Z,5.35
2023-03-29T00:15:27.276Z,5.00
2023-03-29T00:17:54.491Z,6.95
2023-03-29T00:20:22.272Z,5.18
2023-03-29T00:25:45.258Z,7.80
2023-03-29T00:28:49.779Z,5.65
2023-03-29T00:31:17.725Z,3.47
2023-03-29T00:33:44.994Z,5.15
2023-03-29T00:36:13.151Z,6.68
2023-03-29T00:38:40.744Z,4.47
2023-03-29T00:41:08.174Z,4.30
2023-03-29T00:43:55.424Z,5.18
2023-03-29T00:46:23.074Z,4.82
2023-03-29T00:48:52.812Z,7.50
2023-03-29T00:51:20.958Z,4.47
2023-03-29T00:53:50.339Z,7.85
2023-03-29T00:56:29.909Z,6.25
2023-03-29T00:59:09.494Z,6.50
2023-03-29T01:01:43.073Z,7.80
2023-03-29T01:04:18.207Z,4.68
2023-03-29T01:06:54.314Z,4.60
2023-03-29T01:09:22.562Z,6.07
2023-03-29T01:11:54.060Z,4.60
2023-03-29T01:14:24.684Z,6.93
2023-03-29T01:16:51.925Z,7.22
2023-03-29T01:19:21.477Z,7.47
2023-03-29T01:21:53.888Z,6.43
2023-03-29T01:24:22.189Z,5.90
2023-03-29T01:27:03.694Z,6.72
2023-03-29T01:29:39.692Z,5.80
2023-03-29T01:32:12.202Z,8.27
2023-03-29T01:34:44.394Z,6.68
2023-03-29T01:37:24.619Z,4.72
2023-03-29T01:39:52.696Z,6.07
2023-03-29T01:42:40.257Z,6.85
2023-03-29T01:45:21.886Z,5.38
2023-03-29T01:48:12.391Z,8.30
2023-03-29T01:50:45.800Z,5.78
2023-03-29T01:53:24.666Z,9.05
2023-03-29T01:56:04.503Z,8.13
2023-03-29T01:58:34.280Z,6.68
2023-03-29T02:01:05.706Z,6.63
2023-03-29T02:03:34.621Z,6.80
2023-03-29T02:06:03.530Z,6.15
2023-03-29T02:08:31.012Z,6.68
2023-03-29T02:10:58.342Z,7.82
2023-03-29T02:13:25.660Z,8.00
2023-03-29T02:15:52.802Z,9.70
2023-03-29T02:18:20.521Z,5.32
2023-03-29T02:20:49.703Z,8.02
2023-03-29T02:23:27.245Z,6.32
2023-03-29T02:25:54.733Z,5.88
2023-03-29T02:28:23.066Z,5.80
2023-03-29T02:31:19.029Z,6.20
2023-03-29T02:33:51.558Z,6.70
2023-03-29T02:36:22.597Z,7.10
2023-03-29T02:38:49.784Z,9.30
2023-03-29T02:41:18.018Z,6.50
2023-03-29T02:43:46.788Z,6.63
2023-03-29T02:46:15.679Z,5.85
2023-03-29T02:48:42.899Z,7.07
2023-03-29T02:51:17.382Z,7.43
2023-03-29T02:53:50.058Z,7.03
2023-03-29T02:56:17.199Z,9.25
2023-03-29T02:58:44.480Z,5.85
2023-03-29T03:01:12.755Z,8.85
2023-03-29T03:03:40.083Z,5.78
2023-03-29T03:06:07.375Z,7.38
2023-03-29T03:08:34.495Z,7.00
2023-03-29T03:11:02.115Z,6.88
2023-03-29T03:13:29.743Z,7.50
2023-03-29T03:15:56.996Z,7.32
2023-03-29T03:18:24.154Z,14.13
2023-03-29T03:20:59.164Z,8.00
2023-03-29T03:28:22.033Z,4.55
2023-03-29T03:30:49.599Z,6.90
2023-03-29T03:33:18.137Z,10.00
2023-03-29T03:35:46.490Z,9.80
2023-03-29T03:38:13.880Z,7.45
2023-03-29T03:40:41.129Z,7.55
2023-03-29T03:43:08.709Z,7.68
2023-03-29T03:45:35.848Z,6.00
2023-03-29T03:48:03.009Z,7.57
2023-03-29T03:50:30.237Z,7.50
2023-03-29T03:52:57.378Z,7.57
2023-03-29T03:55:24.546Z,7.38
2023-03-29T03:57:52.574Z,9.32
2023-03-29T04:00:19.981Z,10.40
2023-03-29T04:02:48.182Z,6.18
2023-03-29T04:05:16.407Z,8.27
2023-03-29T04:07:43.766Z,8.20
2023-03-29T04:10:11.372Z,8.45
2023-03-29T04:12:40.700Z,8.38
2023-03-29T04:15:08.605Z,6.80
2023-03-29T04:17:35.895Z,8.05
2023-03-29T04:20:10.044Z,8.50
2023-03-29T04:22:37.348Z,7.45
2023-03-29T04:25:05.294Z,10.18
2023-03-29T04:27:32.610Z,7.65
2023-03-29T04:29:59.702Z,7.97
2023-03-29T04:32:26.807Z,7.63
2023-03-29T04:34:54.087Z,14.88
2023-03-29T04:37:22.387Z,6.65
2023-03-29T04:39:50.148Z,6.78
2023-03-29T04:42:18.154Z,6.22
2023-03-29T04:44:45.743Z,10.98
2023-03-29T04:47:13.232Z,5.65
2023-03-29T04:49:41.005Z,6.38
2023-03-29T04:52:09.316Z,8.97
2023-03-29T04:54:37.305Z,7.35
2023-03-29T04:57:05.648Z,6.40
2023-03-29T04:59:32.846Z,7.93
2023-03-29T05:02:01.425Z,8.35
2023-03-29T05:04:28.808Z,7.47
2023-03-29T05:06:56.339Z,8.77
2023-03-29T05:09:23.758Z,8.85
2023-03-29T05:11:51.355Z,9.27
2023-03-29T05:14:18.625Z,9.60
2023-03-29T05:16:47.788Z,6.32
2023-03-29T05:19:14.913Z,8.15
2023-03-29T05:21:43.679Z,6.25
2023-03-29T05:24:12.252Z,5.90
2023-03-29T05:26:39.990Z,6.35
2023-03-29T05:29:08.995Z,10.23
2023-03-29T05:34:05.722Z,9.52
2023-03-29T05:36:32.885Z,8.80
2023-03-29T05:39:00.445Z,7.82
2023-03-29T05:41:27.584Z,7.82
2023-03-29T05:43:54.709Z,9.63
2023-03-29T05:46:21.896Z,8.02
2023-03-29T05:48:49.057Z,7.32
2023-03-29T05:51:18.561Z,8.20
2023-03-29T05:53:46.151Z,8.65
2023-03-29T05:56:16.009Z,9.40
2023-03-29T05:58:43.497Z,11.32
2023-03-29T06:01:14.752Z,9.82
2023-03-29T06:03:42.318Z,7.18
2023-03-29T06:06:10.170Z,8.63
2023-03-29T06:08:37.673Z,11.85
2023-03-29T06:11:06.223Z,10.48
2023-03-29T06:13:34.163Z,10.15
2023-03-29T06:16:01.657Z,8.93
2023-03-29T06:18:29.326Z,9.15
2023-03-29T06:20:56.514Z,7.53
2023-03-29T06:23:23.651Z,13.88
2023-03-29T06:25:51.582Z,8.38
2023-03-29T06:28:19.235Z,8.45
2023-03-29T06:30:46.822Z,11.80
2023-03-29T06:33:14.597Z,8.57
2023-03-29T06:35:43.664Z,8.50
2023-03-29T06:38:11.233Z,10.75
2023-03-29T06:40:38.736Z,9.68
2023-03-29T06:43:06.714Z,11.27
2023-03-29T06:45:35.302Z,7.82
2023-03-29T06:48:03.302Z,9.90
2023-03-29T06:50:30.951Z,9.18
2023-03-29T06:52:58.364Z,10.27
2023-03-29T06:55:25.999Z,9.18
2023-03-29T06:57:54.415Z,10.57
2023-03-29T07:00:27.989Z,10.20
2023-03-29T07:02:56.614Z,10.82
2023-03-29T07:05:24.015Z,12.30
2023-03-29T07:08:00.224Z,9.43
2023-03-29T07:10:28.622Z,11.70
2023-03-29T07:12:55.809Z,14.02
2023-03-29T07:15:23.134Z,9.15
2023-03-29T07:17:50.464Z,8.77
2023-03-29T07:20:17.945Z,8.30
2023-03-29T07:22:45.789Z,10.63
2023-03-29T07:25:13.155Z,12.45
2023-03-29T07:27:42.680Z,12.18
2023-03-29T07:30:11.349Z,9.15
2023-03-29T07:32:39.407Z,9.43
2023-03-29T07:35:07.086Z,8.50
2023-03-29T07:37:35.188Z,10.60
2023-03-29T07:40:04.484Z,9.35
2023-03-29T07:42:31.834Z,11.57
2023-03-29T07:44:58.936Z,15.80
2023-03-29T07:47:26.146Z,9.75
2023-03-29T07:49:53.273Z,9.15
2023-03-29T07:52:20.388Z,13.38
2023-03-29T07:54:47.721Z,19.58
2023-03-29T07:57:15.000Z,10.20
2023-03-29T07:59:42.124Z,9.68
2023-03-29T08:02:11.245Z,12.02
2023-03-29T08:04:38.468Z,11.63
2023-03-29T08:07:05.995Z,12.52
2023-03-29T08:09:33.189Z,9.70
2023-03-29T08:12:00.377Z,11.70
2023-03-29T08:14:28.744Z,11.38
2023-03-29T08:16:56.220Z,18.20
2023-03-29T08:19:23.468Z,13.20
2023-03-29T08:21:50.681Z,16.75
2023-03-29T08:24:20.424Z,13.75
2023-03-29T08:26:48.863Z,19.25
2023-03-29T08:29:16.148Z,16.17
2023-03-29T08:31:43.924Z,12.70
2023-03-29T08:34:11.219Z,13.27
2023-03-29T08:36:38.509Z,14.60
2023-03-29T08:39:06.006Z,13.10
2023-03-29T08:41:52.288Z,14.20
2023-03-29T08:44:43.917Z,11.20
2023-03-29T08:47:20.311Z,22.10
2023-03-29T08:49:49.058Z,15.05
2023-03-29T08:52:31.254Z,14.40
2023-03-29T08:54:59.694Z,11.85
2023-03-29T08:57:30.447Z,12.90
2023-03-29T08:59:59.685Z,12.05
2023-03-29T09:02:31.378Z,15.43
2023-03-29T09:05:01.250Z,14.98
2023-03-29T09:07:28.416Z,16.08
2023-03-29T09:09:55.898Z,16.30
2023-03-29T09:12:37.896Z,13.43
2023-03-29T09:15:20.349Z,15.63
2023-03-29T09:18:07.095Z,12.50
2023-03-29T09:21:06.928Z,14.35
2023-03-29T09:23:34.316Z,18.02
2023-03-29T09:26:19.915Z,13.10
2023-03-29T09:29:07.719Z,14.10
2023-03-29T09:31:39.025Z,13.88
2023-03-29T09:34:22.003Z,11.32
2023-03-29T09:36:53.428Z,15.48
2023-03-29T09:39:21.257Z,13.80
2023-03-29T09:41:51.441Z,13.10
2023-03-29T09:44:30.212Z,13.45
2023-03-29T09:47:21.556Z,13.32
2023-03-29T09:49:51.559Z,15.77
2023-03-29T09:52:20.919Z,15.30
2023-03-29T09:54:48.107Z,16.05
2023-03-29T09:57:19.405Z,15.77
2023-03-29T09:59:46.727Z,15.02
2023-03-29T10:02:14.576Z,12.88
2023-03-29T10:04:42.949Z,11.90
2023-03-29T10:07:18.124Z,15.55
2023-03-29T10:09:45.787Z,13.30
2023-03-29T10:12:13.857Z,15.98
2023-03-29T10:14:41.218Z,16.25
2023-03-29T10:17:16.828Z,16.17
2023-03-29T10:19:57.220Z,15.20
2023-03-29T10:22:28.488Z,17.27
2023-03-29T10:24:57.967Z,15.52
2023-03-29T10:27:29.217Z,15.10
2023-03-29T10:29:57.522Z,14.88
2023-03-29T10:32:34.727Z,14.85
2023-03-29T10:35:13.383Z,14.40
2023-03-29T10:37:41.734Z,15.75
2023-03-29T10:40:17.646Z,16.23
2023-03-29T10:42:52.177Z,14.50
2023-03-29T10:45:21.439Z,15.85
2023-03-29T10:47:49.382Z,16.27
2023-03-29T10:50:17.030Z,18.00
2023-03-29T10:52:44.438Z,14.18
2023-03-29T10:55:13.440Z,15.57
2023-03-29T10:57:53.585Z,19.90
2023-03-29T11:00:20.942Z,16.98
2023-03-29T11:02:54.222Z,16.40
2023-03-29T11:05:28.660Z,14.98
2023-03-29T11:08:01.834Z,16.60
2023-03-29T11:10:38.512Z,18.05
2023-03-29T11:13:11.891Z,17.08
2023-03-29T11:15:48.492Z,18.60
2023-03-29T11:18:34.597Z,18.65
2023-03-29T11:21:10.744Z,18.23
2023-03-29T11:23:46.941Z,19.92
2023-03-29T11:26:21.066Z,18.23
2023-03-29T11:28:52.959Z,17.20
2023-03-29T11:31:28.844Z,17.50
2023-03-29T11:34:15.657Z,21.05
2023-03-29T11:36:42.845Z,19.05
2023-03-29T11:39:22.286Z,19.75
2023-03-29T11:41:53.452Z,23.75
2023-03-29T11:44:27.322Z,24.25
2023-03-29T11:47:03.886Z,22.98
2023-03-29T11:49:37.420Z,19.52
2023-03-29T11:52:28.303Z,20.67
2023-03-29T11:55:14.447Z,27.05
2023-03-29T11:57:44.696Z,25.77
2023-03-29T12:00:12.385Z,22.63
2023-03-29T12:02:41.655Z,22.73
2023-03-29T12:05:22.885Z,22.67
2023-03-29T12:07:55.891Z,22.95
2023-03-29T12:10:24.965Z,22.48
2023-03-29T12:13:02.987Z,20.98
2023-03-29T12:15:43.280Z,20.88
2023-03-29T12:18:16.658Z,23.27
2023-03-29T12:20:47.319Z,21.67
2023-03-29T12:23:15.777Z,22.42
2023-03-29T12:25:46.557Z,23.48
2023-03-29T12:28:23.245Z,24.27
2023-03-29T12:30:54.541Z,24.08
2023-03-29T12:33:33.198Z,23.58
2023-03-29T12:36:13.747Z,25.77
2023-03-29T12:38:41.648Z,22.70
2023-03-29T12:41:22.521Z,24.80
2023-03-29T12:46:18.331Z,22.35
2023-03-29T12:48:47.397Z,26.33
2023-03-29T12:51:15.963Z,24.88
2023-03-29T12:53:56.442Z,25.63
2023-03-29T12:56:36.362Z,22.00
2023-03-29T12:59:17.629Z,25.98
2023-03-29T13:01:57.502Z,25.40
2023-03-29T13:04:37.320Z,22.30
2023-03-29T13:07:05.768Z,22.08
2023-03-29T13:09:36.737Z,22.50
2023-03-29T13:12:08.892Z,21.92
2023-03-29T13:14:37.378Z,25.88
2023-03-29T13:17:17.722Z,25.00
2023-03-29T13:20:12.544Z,24.20
2023-03-29T13:22:54.525Z,24.35
2023-03-29T13:25:41.317Z,24.77
2023-03-29T13:28:24.198Z,25.33
2023-03-29T13:30:57.571Z,23.15
2023-03-29T13:33:24.776Z,22.70
2023-03-29T13:36:06.903Z,26.55
2023-03-29T13:38:44.960Z,22.10
2023-03-29T13:41:31.907Z,21.35
2023-03-29T13:46:37.460Z,20.20
2023-03-29T13:49:07.386Z,19.38
2023-03-29T13:51:37.858Z,22.08
2023-03-29T13:54:17.442Z,20.45
2023-03-29T13:56:57.732Z,21.02
2023-03-29T13:59:28.545Z,22.70
2023-03-29T14:01:58.134Z,19.65
2023-03-29T14:04:27.592Z,18.50
2023-03-29T14:06:57.909Z,18.48
2023-03-29T14:09:32.888Z,20.13
2023-03-29T14:12:01.108Z,19.55
2023-03-29T14:14:30.826Z,20.42
2023-03-29T14:17:04.470Z,18.17
2023-03-29T14:19:33.195Z,19.30
2023-03-29T14:22:01.673Z,16.42
2023-03-29T14:26:56.208Z,18.50
2023-03-29T14:29:25.488Z,19.42
2023-03-29T14:31:53.090Z,17.70
2023-03-29T14:34:20.242Z,16.08
2023-03-29T14:36:54.104Z,15.68
2023-03-29T14:39:23.350Z,14.98
2023-03-29T14:41:52.191Z,15.50
2023-03-29T14:44:20.859Z,12.60
2023-03-29T14:46:48.070Z,13.52
2023-03-29T14:49:16.878Z,14.23
2023-03-29T14:51:45.403Z,14.55
2023-03-29T14:56:40.053Z,11.80
2023-03-29T14:59:21.497Z,13.48
2023-03-29T15:01:49.162Z,13.30
2023-03-29T15:04:16.361Z,10.02
2023-03-29T15:06:46.744Z,9.60
2023-03-29T15:09:19.169Z,11.32
2023-03-29T15:11:56.446Z,10.80
2023-03-29T15:14:25.396Z,11.68
2023-03-29T15:16:53.483Z,9.90
2023-03-29T15:19:22.097Z,10.43
2023-03-29T15:21:50.118Z,10.75
2023-03-29T15:24:20.401Z,10.02
2023-03-29T15:26:57.970Z,11.25
2023-03-29T15:29:25.955Z,12.43
2023-03-29T15:31:57.011Z,10.60
2023-03-29T15:34:27.779Z,10.98
2023-03-29T15:36:57.855Z,11.70
2023-03-29T15:39:25.223Z,12.90
2023-03-29T15:41:53.590Z,9.73
2023-03-29T15:44:27.780Z,11.95
2023-03-29T15:46:57.494Z,11.18
2023-03-29T15:49:25.133Z,11.00
2023-03-29T15:51:54.199Z,10.68
2023-03-29T15:54:24.953Z,10.85
2023-03-29T15:56:54.039Z,11.40
2023-03-29T15:59:21.667Z,14.30
2023-03-29T16:01:49.041Z,11.25
2023-03-29T16:04:17.653Z,11.55
2023-03-29T16:06:46.940Z,10.85
2023-03-29T16:09:14.210Z,10.07
2023-03-29T16:11:42.327Z,10.10
2023-03-29T16:14:20.950Z,11.07
2023-03-29T16:16:48.235Z,25.65
2023-03-29T16:19:15.548Z,14.77
2023-03-29T16:21:45.708Z,10.68
2023-03-29T16:24:14.463Z,11.40
2023-03-29T16:26:41.610Z,10.60
2023-03-29T16:29:08.975Z,10.10
2023-03-29T16:31:36.682Z,12.57
2023-03-29T16:34:04.130Z,14.30
2023-03-29T16:36:32.861Z,9.50
2023-03-29T16:39:00.293Z,17.23
2023-03-29T16:41:27.717Z,13.48
2023-03-29T16:43:55.546Z,10.85
2023-03-29T16:46:23.405Z,9.80
2023-03-29T16:48:51.474Z,10.32
2023-03-29T16:51:18.718Z,28.60
2023-03-29T16:53:47.688Z,10.15
2023-03-29T16:56:15.115Z,12.90
2023-03-29T16:58:42.542Z,13.20
2023-03-29T17:01:09.959Z,9.40
2023-03-29T17:03:37.707Z,9.82
2023-03-29T17:06:05.505Z,11.10
2023-03-29T17:08:33.587Z,11.10
2023-03-29T17:11:01.235Z,8.80
2023-03-29T17:13:28.473Z,12.23
2023-03-29T17:15:56.272Z,12.70
2023-03-29T17:18:25.604Z,10.93
2023-03-29T17:20:54.082Z,11.45
2023-03-29T17:23:21.351Z,12.68
2023-03-29T17:25:48.549Z,9.07
2023-03-29T17:28:15.805Z,9.57
2023-03-29T17:30:44.913Z,11.90
2023-03-29T17:33:13.595Z,15.57
2023-03-29T17:35:44.519Z,13.82
2023-03-29T17:38:12.212Z,9.60
2023-03-29T17:40:39.504Z,8.45
2023-03-29T17:43:06.732Z,8.13
2023-03-29T17:45:35.651Z,8.25
2023-03-29T17:48:05.548Z,8.55
2023-03-29T17:50:33.493Z,8.75
2023-03-29T17:53:00.919Z,9.10
2023-03-29T17:55:28.367Z,11.23
2023-03-29T17:57:56.827Z,9.90
2023-03-29T18:00:24.647Z,9.10
2023-03-29T18:02:52.396Z,9.30
2023-03-29T18:05:19.906Z,10.15
2023-03-29T18:07:47.215Z,10.35
2023-03-29T18:10:14.815Z,8.52
2023-03-29T18:12:42.073Z,7.95
2023-03-29T18:15:09.569Z,18.70
2023-03-29T18:17:36.963Z,12.35
2023-03-29T18:20:11.191Z,10.60
2023-03-29T18:22:39.493Z,10.10
2023-03-29T18:25:07.448Z,8.77
2023-03-29T18:27:34.651Z,11.05
2023-03-29T18:30:08.902Z,8.60
2023-03-29T18:32:36.890Z,13.50
2023-03-29T18:35:05.296Z,9.43
2023-03-29T18:37:32.733Z,12.60
2023-03-29T18:40:00.280Z,11.52
2023-03-29T18:42:27.527Z,11.30
2023-03-29T18:44:54.761Z,10.50
2023-03-29T18:47:22.274Z,11.80
2023-03-29T18:49:49.661Z,10.85
2023-03-29T18:52:16.811Z,10.35
2023-03-29T18:54:44.061Z,10.95
2023-03-29T18:57:11.329Z,11.10
2023-03-29T18:59:38.636Z,12.65
2023-03-29T19:02:06.135Z,9.55
2023-03-29T19:04:33.332Z,9.35
2023-03-29T19:07:01.439Z,9.32
2023-03-29T19:09:28.780Z,11.85
2023-03-29T19:11:56.134Z,8.75
2023-03-29T19:14:25.290Z,10.57
2023-03-29T19:16:53.022Z,14.00
2023-03-29T19:19:20.575Z,12.75
2023-03-29T19:21:47.856Z,14.63
2023-03-29T19:24:15.134Z,11.55
2023-03-29T19:26:43.939Z,10.73
2023-03-29T19:29:11.642Z,16.83
2023-03-29T19:31:39.015Z,11.45
2023-03-29T19:34:06.973Z,14.02
2023-03-29T19:36:34.727Z,13.20
2023-03-29T19:39:02.277Z,11.25
2023-03-29T19:41:29.623Z,12.23
2023-03-29T19:43:56.874Z,13.82
2023-03-29T19:46:24.107Z,18.08
2023-03-29T19:48:54.821Z,14.07
2023-03-29T19:51:23.090Z,8.98
2023-03-29T19:53:50.760Z,10.57
2023-03-29T19:56:18.027Z,9.98
2023-03-29T19:58:46.773Z,11.75
2023-03-29T20:08:50.995Z,13.43
2023-03-29T20:11:23.639Z,13.55
2023-03-29T20:13:51.181Z,11.00
2023-03-29T20:16:18.756Z,11.93
2023-03-29T20:18:46.614Z,13.27
2023-03-29T20:21:16.648Z,10.32
2023-03-29T20:23:44.338Z,12.95
2023-03-29T20:26:11.571Z,11.77
2023-03-29T20:28:38.734Z,14.73
2023-03-29T20:31:06.904Z,11.27
2023-03-29T20:33:34.374Z,12.90
2023-03-29T20:36:01.663Z,11.75
2023-03-29T20:38:28.959Z,11.07
2023-03-29T20:40:56.206Z,11.98
2023-03-29T20:43:25.609Z,12.68
2023-03-29T20:45:54.207Z,12.95
2023-03-29T20:48:39.199Z,9.38
2023-03-29T20:51:11.095Z,12.60
2023-03-29T20:53:42.855Z,11.30
2023-03-29T20:56:19.036Z,11.35
2023-03-29T20:58:46.582Z,11.38
2023-03-29T21:01:14.387Z,12.00
2023-03-29T21:03:42.379Z,9.98
2023-03-29T21:06:13.966Z,11.85
2023-03-29T21:08:43.601Z,12.73
2023-03-29T21:11:13.216Z,12.70
2023-03-29T21:13:41.521Z,13.43
2023-03-29T21:16:08.782Z,11.35
2023-03-29T21:18:39.913Z,10.27
2023-03-29T21:21:08.082Z,17.45
2023-03-29T21:23:36.470Z,9.48
2023-03-29T21:26:04.342Z,10.50
2023-03-29T21:28:31.536Z,9.30
2023-03-29T21:30:58.740Z,10.50
2023-03-29T21:33:26.228Z,12.13
2023-03-29T21:35:53.367Z,15.15
2023-03-29T21:38:20.729Z,11.20
2023-03-29T21:40:48.254Z,11.85
2023-03-29T21:43:15.722Z,10.93
2023-03-29T21:45:42.832Z,15.13
2023-03-29T21:48:10.212Z,10.70
2023-03-29T21:50:37.522Z,11.60
2023-03-29T21:53:04.640Z,11.07
2023-03-29T21:55:36.130Z,10.40
2023-03-29T21:58:04.503Z,10.20
2023-03-29T22:00:32.086Z,11.57
2023-03-29T22:02:59.357Z,16.60
2023-03-29T22:05:26.587Z,11.38
2023-03-29T22:07:53.677Z,8.40
2023-03-29T22:10:23.891Z,11.65
2023-03-29T22:12:51.729Z,10.27
2023-03-29T22:15:21.796Z,10.70
2023-03-29T22:17:50.379Z,11.02
2023-03-29T22:20:18.513Z,8.45
2023-03-29T22:22:46.604Z,9.05
2023-03-29T22:25:14.229Z,8.88
2023-03-29T22:27:41.357Z,13.32
2023-03-29T22:30:09.015Z,12.80
2023-03-29T22:32:36.370Z,9.27
2023-03-29T22:35:03.631Z,8.85
2023-03-29T22:37:31.284Z,10.75
2023-03-29T22:39:58.404Z,11.70
2023-03-29T22:42:25.780Z,9.52
2023-03-29T22:44:52.864Z,10.02
2023-03-29T22:47:20.147Z,11.00
2023-03-29T22:49:48.620Z,10.95
2023-03-29T22:52:15.713Z,10.98
2023-03-29T22:54:42.924Z,9.07
2023-03-29T22:57:10.074Z,12.95
2023-03-29T22:59:37.266Z,12.63
2023-03-29T23:02:04.494Z,10.15
2023-03-29T23:04:31.725Z,19.63
2023-03-29T23:06:59.798Z,9.73
2023-03-29T23:09:26.880Z,9.57
2023-03-29T23:11:54.028Z,11.73
2023-03-29T23:14:21.171Z,11.85
2023-03-29T23:16:48.362Z,11.45
2023-03-29T23:19:15.536Z,11.27
2023-03-29T23:21:42.603Z,10.20
2023-03-29T23:24:09.780Z,11.55
2023-03-29T23:26:37.696Z,12.60
2023-03-29T23:29:04.829Z,8.57
2023-03-29T23:31:33.724Z,10.85
2023-03-29T23:34:00.912Z,8.55
2023-03-29T23:36:31.107Z,9.20
2023-03-29T23:38:59.768Z,10.23
2023-03-29T23:43:57.658Z,10.52
2023-03-29T23:46:26.005Z,9.45
2023-03-29T23:48:53.168Z,7.97
2023-03-29T23:51:23.648Z,9.95
2023-03-29T23:53:51.420Z,11.15
2023-03-29T23:56:18.559Z,7.60
2023-03-29T23:58:45.728Z,7.10
